Time;durP1;ratioP1;P1;durP2;ratioP2;P2;SDS_P1;SDS_P2;PMS_P1;PMS_P2;Temp;Humidity;BMP_temperature;BMP_pressure;BME280_temperature;BME280_humidity;BME280_pressure;Samples;Min_cycle;Max_cycle;Signal;HPM_P1;HPM_P2
2021/05/29 00:04:46;;;;;;;16.25;9.50;;;;;;;12.24;70.92;99292.80;3919448;89;21113;-80
2021/05/29 00:10:51;;;;;;;14.43;10.05;;;;;;;12.17;70.95;99291.34;3916671;89;21620;-80
2021/05/29 00:16:53;;;;;;;14.25;10.05;;;;;;;12.06;71.35;99286.34;3916114;90;21627;-80
2021/05/29 00:22:55;;;;;;;20.37;10.80;;;;;;;11.88;72.26;99292.25;3883517;90;21064;-80
2021/05/29 00:28:57;;;;;;;19.95;11.57;;;;;;;11.85;72.37;99294.38;3879358;91;21109;-78
2021/05/29 00:34:59;;;;;;;19.35;12.13;;;;;;;11.74;72.96;99292.09;3881739;91;21201;-79
2021/05/29 00:41:07;;;;;;;21.93;12.35;;;;;;;11.64;73.26;99287.27;3977954;88;21184;-79
2021/05/29 00:47:07;;;;;;;;;;;;;;;11.61;73.46;99285.81;3979357;88;21080;-80
2021/05/29 00:53:10;;;;;;;22.85;13.28;;;;;;;11.55;74.64;99276.34;3979327;88;20181;-79
2021/05/29 00:59:11;;;;;;;26.02;14.00;;;;;;;11.61;74.49;99276.22;3979458;89;21104;-80
2021/05/29 01:05:16;;;;;;;23.00;12.70;;;;;;;11.67;74.43;99283.77;3993738;87;21684;-79
2021/05/29 01:11:17;;;;;;;24.67;13.53;;;;;;;11.66;74.40;99278.66;4013269;87;21626;-80
2021/05/29 01:17:19;;;;;;;22.13;15.10;;;;;;;11.70;74.90;99278.14;3928029;89;21118;-79
2021/05/29 01:23:20;;;;;;;22.00;14.60;;;;;;;11.72;74.78;99281.27;3955157;89;21640;-79
2021/05/29 01:29:22;;;;;;;21.02;14.47;;;;;;;11.57;75.41;99270.72;3954832;89;21120;-80
2021/05/29 01:35:24;;;;;;;24.55;16.07;;;;;;;11.60;75.66;99264.48;3950978;89;21044;-80
2021/05/29 01:41:26;;;;;;;27.58;17.60;;;;;;;11.66;75.83;99261.64;3975127;88;21104;-80
2021/05/29 01:47:28;;;;;;;31.27;17.45;;;;;;;11.68;75.85;99267.52;3899531;90;21087;-80
2021/05/29 01:53:38;;;;;;;28.05;17.55;;;;;;;11.68;76.23;99267.52;3899450;91;21079;-80
2021/05/29 01:59:39;;;;;;;26.48;17.40;;;;;;;11.78;76.18;99271.54;3902343;90;21082;-79
2021/05/29 02:05:40;;;;;;;27.95;17.75;;;;;;;11.83;76.18;99270.63;3883468;90;21172;-80
2021/05/29 02:11:42;;;;;;;26.23;17.15;;;;;;;11.82;76.34;99264.95;3849392;91;21185;-80
2021/05/29 02:17:49;;;;;;;26.33;16.65;;;;;;;11.78;76.37;99261.94;3849276;91;21127;-79
2021/05/29 02:24:04;;;;;;;24.47;17.67;;;;;;;11.76;76.49;99262.92;3851581;91;21085;-80
2021/05/29 02:30:08;;;;;;;26.80;18.25;;;;;;;11.80;76.59;99252.77;3849805;91;21084;-80
2021/05/29 02:36:11;;;;;;;29.12;19.02;;;;;;;11.78;76.76;99250.97;3843990;91;21117;-80
2021/05/29 02:42:12;;;;;;;27.37;17.30;;;;;;;11.78;76.90;99253.14;3871965;91;21201;-79
2021/05/29 02:48:15;;;;;;;28.47;18.05;;;;;;;11.78;76.92;99256.45;3875570;90;21146;-80
2021/05/29 02:54:17;;;;;;;31.57;18.57;;;;;;;11.78;76.98;99247.66;3894458;91;21179;-79
2021/05/29 03:00:20;;;;;;;26.85;16.77;;;;;;;11.75;77.07;99255.27;3990923;88;21084;-80
2021/05/29 03:06:23;;;;;;;24.18;15.75;;;;;;;11.75;77.17;99253.09;3994490;88;21118;-80
2021/05/29 03:12:25;;;;;;;26.20;17.07;;;;;;;11.77;77.29;99254.89;3997178;87;21090;-80
2021/05/29 03:18:27;;;;;;;25.12;17.07;;;;;;;11.71;77.36;99250.34;3976177;89;21570;-80
2021/05/29 03:24:29;;;;;;;28.25;16.32;;;;;;;11.61;77.62;99240.00;3954391;89;21138;-81
2021/05/29 03:30:31;;;;;;;27.80;16.73;;;;;;;11.61;77.78;99248.23;4001678;87;21094;-80
2021/05/29 03:36:33;;;;;;;26.30;17.12;;;;;;;11.62;77.85;99251.16;4000552;87;21079;-80
2021/05/29 03:42:45;;;;;;;25.17;17.87;;;;;;;11.63;77.97;99252.00;3988121;89;21113;-80
2021/05/29 03:48:47;;;;;;;26.25;17.12;;;;;;;11.65;78.19;99259.27;3973340;87;21102;-80
2021/05/29 03:54:48;;;;;;;25.32;16.82;;;;;;;11.69;78.27;99258.14;3997672;88;21112;-80
2021/05/29 04:01:03;;;;;;;25.88;17.17;;;;;;;11.73;78.22;99253.47;3995591;88;21060;-80
2021/05/29 04:07:04;;;;;;;26.23;16.80;;;;;;;11.77;78.19;99262.55;3960093;88;21114;-79
2021/05/29 04:13:05;;;;;;;27.07;17.37;;;;;;;11.78;78.25;99264.69;3897864;90;21135;-80
2021/05/29 04:19:07;;;;;;;24.00;15.13;;;;;;;11.70;78.44;99263.83;3896356;90;21128;-79
2021/05/29 04:25:13;;;;;;;20.00;14.73;;;;;;;11.61;78.64;99265.25;3898220;90;21125;-80
2021/05/29 04:31:15;;;;;;;18.37;11.35;;;;;;;11.50;78.48;99273.36;3897506;91;21140;-80
2021/05/29 04:37:17;;;;;;;13.40;9.53;;;;;;;11.30;78.62;99282.11;3897423;91;21092;-80
2021/05/29 04:43:19;;;;;;;12.98;9.70;;;;;;;11.25;78.79;99287.91;3926606;89;21062;-79
2021/05/29 04:49:22;;;;;;;11.05;8.43;;;;;;;11.23;78.73;99295.14;3928674;90;21117;-79
2021/05/29 04:55:24;;;;;;;6.85;5.40;;;;;;;11.17;78.83;99293.89;3927318;89;21724;-79
2021/05/29 05:01:36;;;;;;;8.03;6.00;;;;;;;11.07;78.92;99300.80;3926014;89;21633;-80
2021/05/29 05:07:37;;;;;;;7.92;4.70;;;;;;;10.87;78.96;99306.19;3921394;90;21138;-81
2021/05/29 05:13:38;;;;;;;5.28;3.55;;;;;;;10.64;79.21;99311.50;3915694;90;21139;-81
2021/05/29 05:19:40;;;;;;;6.97;3.70;;;;;;;10.57;79.62;99317.65;3915814;90;21561;-81
2021/05/29 05:25:42;;;;;;;7.05;4.33;;;;;;;10.69;80.01;99308.45;3922924;89;21138;-80
2021/05/29 05:31:44;;;;;;;6.35;3.62;;;;;;;10.77;80.22;99315.02;3887989;90;21125;-81
2021/05/29 05:37:52;;;;;;;5.97;4.25;;;;;;;11.05;80.31;99317.41;3889144;90;21161;-81
2021/05/29 05:43:53;;;;;;;4.65;3.90;;;;;;;11.20;80.00;99313.70;3901163;90;21244;-81
2021/05/29 05:49:54;;;;;;;4.53;4.05;;;;;;;11.27;79.92;99324.77;3909966;90;21189;-81
2021/05/29 05:56:01;;;;;;;4.67;3.40;;;;;;;11.28;79.71;99324.16;3908973;90;21130;-81
2021/05/29 06:02:03;;;;;;;4.47;3.87;;;;;;;11.18;79.63;99320.72;3903105;90;21220;-82
2021/05/29 06:08:04;;;;;;;5.55;4.42;;;;;;;11.05;79.56;99326.43;3901827;90;21202;-80
2021/05/29 06:20:11;;;;;;;6.75;4.28;;;;;;;10.79;80.61;99332.48;3891014;91;21154;-81
2021/05/29 06:26:12;;;;;;;5.83;4.50;;;;;;;11.00;80.69;99345.12;3892809;91;21118;-80
2021/05/29 06:32:14;;;;;;;8.80;6.20;;;;;;;11.18;80.46;99337.16;3893605;90;21377;-81
2021/05/29 06:38:17;;;;;;;7.78;6.17;;;;;;;11.21;80.69;99344.06;3890803;90;21093;-81
2021/05/29 06:44:19;;;;;;;8.88;5.80;;;;;;;11.29;80.65;99345.72;3893934;90;21081;-81
2021/05/29 06:50:20;;;;;;;7.87;5.92;;;;;;;11.28;80.82;99354.31;3902593;90;21630;-80
2021/05/29 07:02:42;;;;;;;7.12;5.47;;;;;;;11.22;81.02;99353.86;3902079;90;21120;-79
2021/05/29 07:08:50;;;;;;;7.65;5.20;;;;;;;11.30;80.99;99362.96;3876734;88;21078;-78
2021/05/29 07:14:51;;;;;;;4.20;3.27;;;;;;;11.34;80.96;99358.34;3881507;90;21220;-81
2021/05/29 07:20:52;;;;;;;4.45;3.20;;;;;;;11.38;80.86;99363.27;3880888;90;21125;-80
2021/05/29 07:26:54;;;;;;;6.83;4.15;;;;;;;11.44;80.73;99359.05;3881234;90;21073;-80
2021/05/29 07:32:55;;;;;;;4.90;3.45;;;;;;;11.48;80.68;99359.89;3882644;90;21078;-80
2021/05/29 07:38:58;;;;;;;5.78;4.45;;;;;;;11.51;80.71;99361.89;3881295;90;21663;-81
2021/05/29 07:44:59;;;;;;;7.70;5.05;;;;;;;11.57;80.75;99363.14;3881491;92;21121;-81
2021/05/29 07:51:02;;;;;;;6.95;5.50;;;;;;;11.58;80.55;99362.77;3881306;90;21113;-81
2021/05/29 07:57:10;;;;;;;6.10;4.45;;;;;;;11.55;80.75;99364.89;3881980;90;21629;-81
2021/05/29 08:03:13;;;;;;;5.12;4.05;;;;;;;11.54;80.92;99370.74;3880753;90;21121;-81
2021/05/29 08:09:15;;;;;;;5.80;4.65;;;;;;;11.63;81.15;99373.45;3881612;90;21136;-81
2021/05/29 08:15:17;;;;;;;8.33;5.45;;;;;;;11.68;81.18;99366.84;3881072;90;21708;-81
2021/05/29 08:21:21;;;;;;;6.90;4.65;;;;;;;11.82;81.20;99369.19;3880651;90;21078;-81
2021/05/29 08:27:22;;;;;;;7.78;6.72;;;;;;;11.98;81.34;99367.60;3879296;91;21125;-81
2021/05/29 08:33:24;;;;;;;7.10;6.20;;;;;;;12.26;81.51;99371.41;3878894;90;21689;-81
2021/05/29 08:39:25;;;;;;;11.50;6.83;;;;;;;12.41;80.85;99368.23;3878109;91;21129;-81
2021/05/29 08:45:27;;;;;;;13.22;7.25;;;;;;;12.43;80.28;99367.28;3878390;90;21149;-81
2021/05/29 08:51:29;;;;;;;9.88;6.92;;;;;;;12.58;80.85;99361.54;3817225;93;21117;-81
2021/05/29 08:57:31;;;;;;;7.10;5.62;;;;;;;12.81;81.33;99357.81;3817054;92;21167;-81
2021/05/29 09:03:50;;;;;;;8.15;5.53;;;;;;;12.88;79.69;99360.02;3814216;92;21127;-81
2021/05/29 09:17:23;;;;;;;8.68;4.70;;;;;;;13.34;79.85;99352.87;3910091;90;21242;-80
2021/05/29 09:23:24;;;;;;;4.80;4.05;;;;;;;13.45;79.54;99347.45;3836999;92;21201;-81
2021/05/29 09:29:29;;;;;;;6.22;3.60;;;;;;;13.48;79.67;99349.44;3882538;91;21866;-81
2021/05/29 09:35:31;;;;;;;7.87;4.42;;;;;;;13.45;79.32;99346.08;3880488;92;21143;-81
2021/05/29 09:41:33;;;;;;;10.00;4.92;;;;;;;13.65;80.01;99347.35;3878282;91;21118;-82
2021/05/29 09:47:35;;;;;;;5.78;3.10;;;;;;;13.64;79.48;99349.91;3879664;90;21662;-81
2021/05/29 09:53:51;;;;;;;6.05;3.77;;;;;;;13.61;78.49;99345.95;3910409;89;21177;-81
2021/05/29 10:00:01;;;;;;;4.97;3.47;;;;;;;13.74;78.25;99340.33;3910593;89;21257;-80
2021/05/29 10:06:11;;;;;;;9.43;3.33;;;;;;;13.91;78.10;99338.22;3890465;89;21094;-80
2021/05/29 10:12:51;;;;;;;7.42;4.62;;;;;;;14.05;77.85;99341.59;3914503;89;21359;-80
2021/05/29 10:18:58;;;;;;;9.40;4.78;;;;;;;14.42;77.27;99326.16;3906770;90;21061;-80
2021/05/29 10:25:01;;;;;;;11.00;4.67;;;;;;;15.17;76.99;99315.49;3908642;90;21124;-79
2021/05/29 10:31:06;;;;;;;5.25;3.83;;;;;;;15.37;75.61;99311.68;3913650;90;21104;-80
2021/05/29 10:37:12;;;;;;;4.25;3.20;;;;;;;15.59;75.01;99311.25;3912374;89;21079;-82
2021/05/29 10:43:36;;;;;;;5.25;3.35;;;;;;;15.82;73.70;99307.21;3652022;88;21713;-84
2021/05/29 10:50:00;;;;;;;5.58;3.40;;;;;;;15.71;74.56;99302.33;3737847;88;21203;-85
2021/05/29 10:56:24;;;;;;;6.03;3.20;;;;;;;16.33;73.14;99297.62;3899330;88;21152;-81
2021/05/29 11:02:26;;;;;;;6.35;2.90;;;;;;;16.83;70.52;99298.81;3909031;89;21214;-82
2021/05/29 11:09:02;;;;;;;3.15;2.08;;;;;;;17.11;70.47;99296.56;3902841;89;21357;-80
2021/05/29 11:15:21;;;;;;;4.28;1.70;;;;;;;16.51;67.63;99314.28;3896897;89;21627;-80
2021/05/29 11:21:24;;;;;;;5.40;1.82;;;;;;;15.20;68.14;99325.72;3916053;89;21626;-79
2021/05/29 11:27:37;;;;;;;3.25;2.60;;;;;;;14.37;69.65;99321.83;3814640;89;5044381;-80
2021/05/29 11:33:54;;;;;;;5.80;3.58;;;;;;;13.98;70.13;99320.94;3875450;90;21082;-80
2021/05/29 11:40:09;;;;;;;8.78;4.30;;;;;;;13.37;71.02;99315.02;3871566;90;21597;-80
2021/05/29 11:46:27;;;;;;;5.28;2.92;;;;;;;13.29;71.82;99303.78;3833780;88;320278;-81
2021/05/29 11:52:43;;;;;;;5.87;3.65;;;;;;;13.54;72.97;99299.76;3734692;91;5064725;-81
2021/05/29 11:59:09;;;;;;;5.37;2.75;;;;;;;14.10;72.44;99280.66;3853845;91;21128;-81
2021/05/29 12:05:25;;;;;;;3.30;1.98;;;;;;;14.86;71.88;99273.58;3495629;93;6812684;-81
2021/05/29 12:11:36;;;;;;;2.85;2.27;;;;;;;15.83;71.92;99291.63;3687280;93;21268;-81
2021/05/29 12:17:44;;;;;;;3.67;1.10;;;;;;;15.90;70.21;99328.05;3716107;93;21149;-80
2021/05/29 12:24:02;;;;;;;3.92;1.40;;;;;;;14.38;68.16;99346.01;3734921;92;21236;-79
2021/05/29 12:30:10;;;;;;;7.35;1.70;;;;;;;12.65;69.16;99361.59;3805395;89;21747;-78
2021/05/29 12:36:14;;;;;;;8.18;1.07;;;;;;;11.78;70.79;99364.22;3830637;90;21109;-79
2021/05/29 12:42:30;;;;;;;10.58;1.30;;;;;;;11.42;71.23;99359.98;3780531;92;21104;-78
2021/05/29 12:48:31;;;;;;;4.00;2.00;;;;;;;11.09;72.09;99336.05;3881529;89;21090;-80
2021/05/29 12:54:46;;;;;;;6.47;2.12;;;;;;;11.03;72.32;99316.41;3883481;90;21166;-79
2021/05/29 13:01:28;;;;;;;4.03;1.45;;;;;;;11.08;73.55;99315.30;3882194;90;21070;-79
2021/05/29 13:07:41;;;;;;;6.95;1.12;;;;;;;11.37;75.18;99321.36;3823883;90;21136;-79
2021/05/29 13:14:14;;;;;;;2.60;1.40;;;;;;;11.55;74.60;99320.22;3807545;91;21074;-82
2021/05/29 13:27:31;;;;;;;2.70;0.80;;;;;;;12.20;72.97;99298.82;3888311;89;21112;-79
2021/05/29 13:33:33;;;;;;;2.52;1.10;;;;;;;12.35;72.38;99295.05;3894500;91;21070;-80
2021/05/29 13:39:35;;;;;;;2.87;0.70;;;;;;;12.67;73.00;99295.28;3888138;91;21260;-80
2021/05/29 13:45:36;;;;;;;2.25;1.20;;;;;;;12.92;70.41;99296.86;3888071;90;21216;-80
2021/05/29 13:51:38;;;;;;;1.98;1.55;;;;;;;12.92;69.58;99285.86;3889509;90;21071;-80
2021/05/29 13:57:39;;;;;;;3.02;1.60;;;;;;;13.21;72.10;99281.55;3887301;91;21708;-80
2021/05/29 14:03:40;;;;;;;3.25;2.30;;;;;;;13.52;72.92;99273.22;3887133;91;21177;-80
2021/05/29 14:09:42;;;;;;;3.35;2.45;;;;;;;13.41;72.72;99272.39;3824971;91;21691;-80
2021/05/29 14:15:44;;;;;;;6.92;2.33;;;;;;;13.35;72.99;99268.44;3800993;91;21065;-80
2021/05/29 14:21:45;;;;;;;3.75;2.40;;;;;;;13.42;72.40;99278.88;3793934;91;26810;-81
2021/05/29 14:27:47;;;;;;;5.70;2.62;;;;;;;13.48;73.95;99292.48;3840989;91;21095;-81
2021/05/29 14:33:49;;;;;;;5.75;3.00;;;;;;;13.58;74.45;99301.92;3811493;91;21105;-81
2021/05/29 14:39:50;;;;;;;9.13;3.87;;;;;;;13.16;73.74;99325.89;3787305;92;21132;-80
2021/05/29 14:45:52;;;;;;;4.58;3.10;;;;;;;12.42;73.75;99332.73;3870758;90;21118;-79
2021/05/29 14:51:53;;;;;;;5.05;2.20;;;;;;;11.67;74.88;99338.62;3874586;90;21121;-79
2021/05/29 14:57:55;;;;;;;7.15;2.22;;;;;;;11.30;76.14;99349.26;3893813;90;21090;-79
2021/05/29 15:03:58;;;;;;;5.03;3.02;;;;;;;10.86;75.86;99359.97;3860832;90;21127;-79
2021/05/29 15:10:03;;;;;;;4.75;3.30;;;;;;;10.75;76.52;99352.16;3848377;91;26214;-79
2021/05/29 15:16:05;;;;;;;3.52;2.70;;;;;;;10.53;79.78;99331.07;3906499;89;21113;-79
2021/05/29 15:22:19;;;;;;;5.75;3.50;;;;;;;10.26;78.34;99321.22;3898767;89;21148;-80
2021/05/29 15:28:22;;;;;;;9.08;3.80;;;;;;;10.41;78.55;99321.69;3785358;91;21152;-80
2021/05/29 15:34:24;;;;;;;7.72;3.95;;;;;;;10.64;79.06;99335.58;3904240;87;23886;-80
2021/05/29 15:40:27;;;;;;;8.28;4.78;;;;;;;10.85;79.37;99344.11;3991838;87;21150;-80
2021/05/29 15:46:28;;;;;;;7.08;5.28;;;;;;;11.04;79.38;99357.70;3997661;87;21065;-80
2021/05/29 15:52:29;;;;;;;6.25;4.75;;;;;;;11.09;79.31;99377.94;3992415;87;22347;-79
2021/05/29 15:58:31;;;;;;;8.85;5.00;;;;;;;11.01;79.62;99374.08;3993552;86;25868;-83
2021/05/29 16:04:34;;;;;;;8.00;5.75;;;;;;;10.91;79.45;99359.66;3930489;89;22012;-81
2021/05/29 16:10:35;;;;;;;6.37;3.55;;;;;;;10.68;81.15;99332.89;3925517;89;21142;-80
2021/05/29 16:16:39;;;;;;;10.85;5.90;;;;;;;10.50;81.84;99318.92;3851586;90;21101;-79
2021/05/29 16:22:40;;;;;;;6.97;4.67;;;;;;;10.51;81.19;99319.69;3860456;91;21136;-79
2021/05/29 16:28:42;;;;;;;7.65;5.72;;;;;;;10.64;81.44;99332.03;3926194;89;21117;-80
2021/05/29 16:34:43;;;;;;;7.33;5.33;;;;;;;10.83;81.19;99324.53;3928060;89;21162;-80
2021/05/29 16:40:47;;;;;;;7.45;5.53;;;;;;;10.80;81.53;99321.16;3930957;89;81566;-80
2021/05/29 16:46:49;;;;;;;11.97;7.65;;;;;;;10.64;81.79;99323.82;3983526;88;21095;-80
2021/05/29 16:52:50;;;;;;;7.70;5.33;;;;;;;10.57;82.11;99316.28;3982444;88;21113;-80
2021/05/29 16:59:01;;;;;;;6.58;4.90;;;;;;;10.58;81.98;99319.25;3983759;88;21123;-79
2021/05/29 17:05:03;;;;;;;4.60;3.30;;;;;;;10.54;82.14;99314.87;3986701;89;21047;-80
2021/05/29 17:11:07;;;;;;;3.83;2.62;;;;;;;10.47;81.59;99308.70;3983940;88;21077;-80
2021/05/29 17:17:09;;;;;;;5.28;3.15;;;;;;;10.40;81.58;99302.30;3973573;88;21110;-80
2021/05/29 17:23:10;;;;;;;5.67;3.77;;;;;;;10.46;81.73;99304.97;3982824;88;21083;-80
2021/05/29 17:29:12;;;;;;;6.60;4.47;;;;;;;10.60;82.02;99309.30;3978737;88;21067;-80
2021/05/29 17:35:13;;;;;;;6.87;4.83;;;;;;;10.69;82.13;99311.20;3980172;88;21128;-80
2021/05/29 17:41:17;;;;;;;7.33;5.05;;;;;;;10.73;82.15;99316.94;3977737;88;21512;-80
2021/05/29 17:47:19;;;;;;;8.93;5.97;;;;;;;10.77;82.08;99316.39;3979106;88;21191;-80
2021/05/29 18:00:17;;;;;;;15.53;8.38;;;;;;;10.24;82.19;99319.44;3873044;88;10000552;-81
2021/05/29 18:06:17;;;;;;;10.65;7.28;;;;;;;10.17;82.49;99318.73;3980248;88;21099;-80
2021/05/29 18:12:18;;;;;;;16.82;8.25;;;;;;;10.04;82.73;99313.19;3983942;88;22162;-84
2021/05/29 18:18:19;;;;;;;18.65;10.30;;;;;;;10.20;83.13;99314.47;3981200;88;21197;-81
2021/05/29 18:24:22;;;;;;;16.32;9.90;;;;;;;10.16;82.99;99317.16;3984196;88;21117;-80
2021/05/29 18:30:29;;;;;;;19.32;10.20;;;;;;;10.16;83.12;99317.16;3986625;88;21086;-80
2021/05/29 18:36:35;;;;;;;16.20;9.70;;;;;;;10.13;82.97;99312.39;3987839;88;21635;-80
2021/05/29 18:42:34;;;;;;;18.73;10.15;;;;;;;10.10;83.13;99319.19;3986533;88;21154;-80
2021/05/29 18:48:35;;;;;;;13.93;8.85;;;;;;;10.12;83.12;99327.80;3986551;86;21082;-81
2021/05/29 18:54:37;;;;;;;11.73;7.35;;;;;;;10.06;83.41;99335.50;3985750;88;21137;-80
2021/05/29 19:12:59;;;;;;;17.32;10.08;;;;;;;9.95;83.37;99350.92;3979211;88;21091;-80
2021/05/29 19:19:03;;;;;;;18.42;11.83;;;;;;;9.86;83.44;99359.13;3979280;86;21071;-80
2021/05/29 19:31:12;;;;;;;16.17;13.70;;;;;;;9.71;83.67;99367.63;3974074;88;21178;-80
2021/05/29 20:27:50;;;;;;;21.27;13.32;;;;;;;9.60;84.51;99389.84;3982934;88;21139;-80
2021/05/29 20:39:55;;;;;;;23.05;14.68;;;;;;;9.71;84.82;99395.55;3985961;88;21131;-80
2021/05/29 20:45:58;;;;;;;19.62;13.25;;;;;;;9.58;84.83;99398.20;3985330;88;21172;-80
2021/05/29 20:52:00;;;;;;;18.82;13.10;;;;;;;9.39;84.81;99391.57;3983800;88;21098;-80
2021/05/29 20:58:01;;;;;;;20.15;13.05;;;;;;;9.38;85.07;99391.33;3985714;88;21091;-80
2021/05/29 21:04:03;;;;;;;22.17;14.18;;;;;;;9.28;84.94;99383.71;3985862;88;21132;-80
2021/05/29 21:10:07;;;;;;;23.83;14.23;;;;;;;9.25;85.09;99384.43;3987950;88;21118;-80
2021/05/29 21:16:15;;;;;;;23.47;14.53;;;;;;;9.34;85.55;99391.04;3984606;88;21122;-80
2021/05/29 21:22:16;;;;;;;21.77;14.28;;;;;;;9.40;85.39;99395.88;3987224;88;21087;-80
2021/05/29 21:28:20;;;;;;;24.07;15.30;;;;;;;9.33;85.08;99402.53;3980991;88;21167;-80
2021/05/29 21:34:23;;;;;;;24.77;15.48;;;;;;;9.26;85.39;99396.92;3985260;88;21206;-80
2021/05/29 21:40:24;;;;;;;21.68;14.50;;;;;;;9.14;85.19;99390.22;3987009;87;21122;-80
2021/05/29 21:52:46;;;;;;;22.50;14.60;;;;;;;9.21;85.58;99382.17;3985980;88;21095;-80
2021/05/29 21:58:47;;;;;;;26.12;14.40;;;;;;;9.23;85.65;99386.72;3988929;87;21130;-80
2021/05/29 22:04:48;;;;;;;20.85;13.65;;;;;;;9.14;85.37;99386.13;3986802;88;21086;-80
2021/05/29 22:10:56;;;;;;;24.63;15.80;;;;;;;9.28;85.88;99387.01;3988249;88;21626;-80
2021/05/29 22:29:38;;;;;;;24.15;14.15;;;;;;;9.14;85.27;99388.86;3986568;88;21122;-80
2021/05/29 22:35:39;;;;;;;27.22;15.03;;;;;;;9.08;85.51;99388.89;3987040;88;21103;-80
2021/05/29 22:41:44;;;;;;;20.97;13.45;;;;;;;9.09;85.82;99387.76;3983071;88;22293;-80
2021/05/29 22:47:45;;;;;;;20.15;13.25;;;;;;;9.17;85.73;99393.61;3987213;88;21344;-80
2021/05/29 22:53:48;;;;;;;23.90;11.35;;;;;;;9.13;85.41;99390.58;3987918;88;21475;-80
2021/05/29 22:59:49;;;;;;;20.20;11.83;;;;;;;9.09;85.74;99391.05;3986248;87;21135;-80
2021/05/29 23:05:51;;;;;;;21.27;11.73;;;;;;;9.06;85.89;99386.30;3976276;88;21118;-79
2021/05/29 23:11:53;;;;;;;19.23;11.08;;;;;;;9.05;86.01;99382.00;3980848;86;21127;-79
2021/05/29 23:17:54;;;;;;;23.60;12.15;;;;;;;9.16;86.04;99379.71;3980892;88;21090;-80
2021/05/29 23:23:56;;;;;;;21.07;13.08;;;;;;;9.24;85.94;99374.63;3976679;88;21091;-80
2021/05/29 23:29:57;;;;;;;16.37;11.65;;;;;;;9.27;85.92;99379.97;3980380;88;21642;-80
2021/05/29 23:35:59;;;;;;;18.37;11.65;;;;;;;9.27;85.99;99379.97;3981877;88;21079;-80
2021/05/29 23:42:01;;;;;;;20.52;11.83;;;;;;;9.28;86.18;99374.16;3980067;88;21726;-80
2021/05/29 23:48:03;;;;;;;24.57;12.15;;;;;;;9.27;85.97;99375.28;3979098;88;21119;-80
2021/05/29 23:54:04;;;;;;;24.05;14.63;;;;;;;9.18;86.29;99371.96;3977546;88;21700;-80
